Impacts TAF Board
For situational awareness. Not to be used for flight planning purposes.
IDs:

KBFM - Mobile/Downtown Arpt, AL, US

Issued at 0554 UTC 17 Feb 2019
Updated at 1010 UTC 17 Feb 2019
Potential Impact None Slight Moderate High
Time<<17/23Z 18/00Z 18/01Z 18/02Z 18/03Z 18/04Z 18/05Z 18/06Z 18/07Z 18/08Z 18/09Z 18/10Z 18/11Z>>
Type PRVL PRVL PRVL PRVL PRVL PRVL PRVL
VIS >6 >6 5 5 5 5 5
CIG 30 30 9 9 9 9 9
Cover OVC OVC OVC OVC OVC OVC OVC
FltCat MVFR MVFR IFR IFR IFR IFR IFR
WX -- -- BR BR BR BR BR
WDir 170 170 180 180 180 180 180
WSpd 10 10 10 10 10 10 10
WGst -- -- -- -- -- -- --
Raw TAF
KBFM 170554Z 1706/1806 16004KT 1SM BR OVC002
  FM170900 15005KT 1/2SM FG VV002
  FM171400 16008KT 3SM BR OVC008
  FM171600 17008KT P6SM OVC015
  FM172100 17010KT P6SM OVC030
  FM180100 18010KT 5SM BR OVC009


METAR Board
Radar Display
Forecast Discussion
For situational awareness. Not to be used for flight planning purposes.